createdAt,value
2023-04-09T00:00:11.942Z,102332.93
2023-04-09T00:00:42.366Z,102330.09
2023-04-09T00:01:12.800Z,102331.26
2023-04-09T00:01:43.253Z,102325.89
2023-04-09T00:02:13.773Z,102329.60
2023-04-09T00:02:44.416Z,102330.94
2023-04-09T00:03:14.947Z,102330.59
2023-04-09T00:03:45.430Z,102333.61
2023-04-09T00:04:15.839Z,102329.61
2023-04-09T00:04:46.379Z,102330.95
2023-04-09T00:05:16.803Z,102327.41
2023-04-09T00:05:47.218Z,102327.27
2023-04-09T00:06:17.636Z,102331.45
2023-04-09T00:06:48.060Z,102330.80
2023-04-09T00:07:18.502Z,102329.98
2023-04-09T00:07:48.906Z,102330.47
2023-04-09T00:08:19.363Z,102331.11
2023-04-09T00:08:49.971Z,102330.94
2023-04-09T00:09:20.612Z,102332.78
2023-04-09T00:09:51.056Z,102334.12
2023-04-09T00:10:21.476Z,102333.80
2023-04-09T00:10:51.899Z,102331.27
2023-04-09T00:11:22.327Z,102330.77
2023-04-09T00:11:52.755Z,102330.79
2023-04-09T00:12:23.172Z,102327.41
2023-04-09T00:12:53.590Z,102327.59
2023-04-09T00:13:35.450Z,102330.95
2023-04-09T00:13:59.349Z,102328.93
2023-04-09T00:14:29.789Z,102327.08
2023-04-09T00:15:00.215Z,102326.91
2023-04-09T00:15:31.904Z,102324.06
2023-04-09T00:16:02.522Z,102325.59
2023-04-09T00:16:32.987Z,102321.71
2023-04-09T00:17:03.380Z,102319.98
2023-04-09T00:17:33.844Z,102324.89
2023-04-09T00:18:04.305Z,102320.34
2023-04-09T00:18:34.740Z,102320.03
2023-04-09T00:19:05.167Z,102320.84
2023-04-09T00:19:35.597Z,102320.52
2023-04-09T00:20:06.013Z,102320.88
2023-04-09T00:20:36.437Z,102321.87
2023-04-09T00:21:06.858Z,102319.83
2023-04-09T00:21:37.293Z,102319.17
2023-04-09T00:22:07.703Z,102320.88
2023-04-09T00:22:38.138Z,102322.55
2023-04-09T00:23:09.266Z,102320.17
2023-04-09T00:23:40.644Z,102321.52
2023-04-09T00:24:11.074Z,102322.02
2023-04-09T00:24:41.508Z,102321.53
2023-04-09T00:25:11.930Z,102319.35
2023-04-09T00:25:42.354Z,102322.05
2023-04-09T00:26:12.772Z,102322.88
2023-04-09T00:26:43.198Z,102319.86
2023-04-09T00:27:13.612Z,102317.67
2023-04-09T00:27:44.041Z,102321.53
2023-04-09T00:28:14.459Z,102320.02
2023-04-09T00:28:44.890Z,102319.69
2023-04-09T00:29:15.313Z,102317.86
2023-04-09T00:29:45.740Z,102318.52
2023-04-09T00:30:16.164Z,102315.64
2023-04-09T00:30:46.590Z,102318.03
2023-04-09T00:31:17.930Z,102319.52
2023-04-09T00:31:49.820Z,102317.83
2023-04-09T00:32:20.208Z,102317.69
2023-04-09T00:32:50.692Z,102318.03
2023-04-09T00:33:21.118Z,102320.39
2023-04-09T00:33:51.529Z,102316.34
2023-04-09T00:34:21.951Z,102316.16
2023-04-09T00:34:52.380Z,102319.70
2023-04-09T00:35:22.803Z,102316.52
2023-04-09T00:35:53.240Z,102315.15
2023-04-09T00:36:25.258Z,102316.50
2023-04-09T00:36:57.349Z,102316.01
2023-04-09T00:37:27.770Z,102317.19
2023-04-09T00:37:58.198Z,102316.66
2023-04-09T00:38:28.618Z,102318.68
2023-04-09T00:38:59.073Z,102316.66
2023-04-09T00:39:29.495Z,102317.50
2023-04-09T00:39:59.917Z,102314.30
2023-04-09T00:40:30.334Z,102314.81
2023-04-09T00:41:00.753Z,102313.11
2023-04-09T00:41:31.177Z,102315.67
2023-04-09T00:42:01.607Z,102314.46
2023-04-09T00:42:32.043Z,102317.33
2023-04-09T00:43:02.492Z,102313.78
2023-04-09T00:43:32.880Z,102314.31
2023-04-09T00:44:03.324Z,102315.64
2023-04-09T00:44:33.736Z,102310.62
2023-04-09T00:45:04.153Z,102315.16
2023-04-09T00:45:34.602Z,102314.32
2023-04-09T00:46:05.030Z,102312.28
2023-04-09T00:46:35.443Z,102315.66
2023-04-09T00:47:05.865Z,102313.63
2023-04-09T00:47:36.321Z,102312.45
2023-04-09T00:48:06.709Z,102314.66
2023-04-09T00:48:37.155Z,102311.13
2023-04-09T00:49:07.560Z,102313.49
2023-04-09T00:49:37.987Z,102311.13
2023-04-09T00:50:08.414Z,102307.59
2023-04-09T00:50:38.839Z,102311.61
2023-04-09T00:51:09.269Z,102309.23
2023-04-09T00:51:39.696Z,102311.44
2023-04-09T00:52:10.116Z,102310.77
2023-04-09T00:52:40.565Z,102316.15
2023-04-09T00:53:10.955Z,102311.27
2023-04-09T00:53:41.376Z,102313.98
2023-04-09T00:54:11.818Z,102314.81
2023-04-09T00:54:42.236Z,102314.83
2023-04-09T00:55:12.693Z,102314.48
2023-04-09T00:55:43.109Z,102314.66
2023-04-09T00:56:13.530Z,102314.98
2023-04-09T00:56:43.949Z,102317.70
2023-04-09T00:57:14.375Z,102314.31
2023-04-09T00:57:44.800Z,102314.99
2023-04-09T00:58:15.218Z,102315.00
2023-04-09T00:58:45.652Z,102313.63
2023-04-09T00:59:16.068Z,102313.14
2023-04-09T00:59:46.489Z,102313.66
2023-04-09T01:00:16.918Z,102311.96
2023-04-09T01:00:47.354Z,102312.12
2023-04-09T01:01:17.811Z,102312.66
2023-04-09T01:01:48.242Z,102316.34
2023-04-09T01:02:18.695Z,102315.19
2023-04-09T01:02:49.182Z,102312.32
2023-04-09T01:03:19.708Z,102313.67
2023-04-09T01:03:50.269Z,102313.30
2023-04-09T01:04:20.649Z,102316.17
2023-04-09T01:04:51.072Z,102311.44
2023-04-09T01:05:21.489Z,102313.49
2023-04-09T01:05:51.911Z,102312.97
2023-04-09T01:06:22.351Z,102314.99
2023-04-09T01:06:52.784Z,102315.67
2023-04-09T01:07:23.201Z,102316.84
2023-04-09T01:07:53.623Z,102312.81
2023-04-09T01:08:24.047Z,102316.52
2023-04-09T01:08:54.765Z,102315.83
2023-04-09T01:09:25.317Z,102313.16
2023-04-09T01:09:55.753Z,102312.65
2023-04-09T01:10:26.161Z,102313.67
2023-04-09T01:10:56.590Z,102316.68
2023-04-09T01:11:27.009Z,102315.83
2023-04-09T01:11:57.437Z,102313.16
2023-04-09T01:12:27.861Z,102312.66
2023-04-09T01:12:58.306Z,102312.12
2023-04-09T01:13:28.717Z,102310.64
2023-04-09T01:13:59.151Z,102314.34
2023-04-09T01:14:29.582Z,102314.33
2023-04-09T01:14:59.996Z,102315.33
2023-04-09T01:15:30.424Z,102312.62
2023-04-09T01:16:00.845Z,102315.50
2023-04-09T01:16:31.302Z,102315.53
2023-04-09T01:17:01.724Z,102317.55
2023-04-09T01:17:32.141Z,102319.91
2023-04-09T01:18:02.577Z,102318.06
2023-04-09T01:18:32.988Z,102320.75
2023-04-09T01:19:03.540Z,102317.38
2023-04-09T01:19:33.959Z,102317.70
2023-04-09T01:20:04.378Z,102319.91
2023-04-09T01:20:34.799Z,102315.70
2023-04-09T01:21:05.219Z,102319.56
2023-04-09T01:21:35.644Z,102318.57
2023-04-09T01:22:06.065Z,102316.21
2023-04-09T01:22:36.496Z,102314.84
2023-04-09T01:23:06.907Z,102318.39
2023-04-09T01:23:37.329Z,102316.38
2023-04-09T01:24:07.755Z,102321.94
2023-04-09T01:24:38.210Z,102316.86
2023-04-09T01:25:08.639Z,102319.05
2023-04-09T01:25:39.046Z,102314.53
2023-04-09T01:26:09.474Z,102315.52
2023-04-09T01:26:39.891Z,102315.70
2023-04-09T01:27:10.325Z,102316.88
2023-04-09T01:27:40.749Z,102316.72
2023-04-09T01:28:11.167Z,102315.52
2023-04-09T01:28:41.587Z,102315.86
2023-04-09T01:29:12.009Z,102313.48
2023-04-09T01:29:42.440Z,102315.01
2023-04-09T01:30:12.886Z,102318.19
2023-04-09T01:30:43.357Z,102316.19
2023-04-09T01:31:13.801Z,102314.67
2023-04-09T01:31:44.282Z,102318.22
2023-04-09T01:32:14.687Z,102313.35
2023-04-09T01:32:45.108Z,102314.50
2023-04-09T01:33:15.530Z,102311.33
2023-04-09T01:33:45.960Z,102315.16
2023-04-09T01:34:16.388Z,102312.16
2023-04-09T01:34:46.814Z,102315.53
2023-04-09T01:35:17.253Z,102312.81
2023-04-09T01:35:47.671Z,102315.17
2023-04-09T01:36:18.079Z,102315.54
2023-04-09T01:36:48.497Z,102317.55
2023-04-09T01:37:18.918Z,102316.21
2023-04-09T01:37:49.353Z,102315.69
2023-04-09T01:38:19.762Z,102315.02
2023-04-09T01:38:50.411Z,102317.55
2023-04-09T01:39:20.916Z,102314.88
2023-04-09T01:39:51.359Z,102317.70
2023-04-09T01:40:21.772Z,102315.70
2023-04-09T01:40:52.216Z,102314.03
2023-04-09T01:41:22.624Z,102314.51
2023-04-09T01:41:53.036Z,102317.06
2023-04-09T01:42:23.459Z,102318.05
2023-04-09T01:42:53.885Z,102316.20
2023-04-09T01:43:24.309Z,102317.75
2023-04-09T01:43:54.728Z,102321.46
2023-04-09T01:44:25.153Z,102319.76
2023-04-09T01:44:55.595Z,102317.91
2023-04-09T01:45:26.023Z,102319.23
2023-04-09T01:45:56.461Z,102321.45
2023-04-09T01:46:26.887Z,102319.44
2023-04-09T01:46:57.289Z,102324.00
2023-04-09T01:47:27.737Z,102319.76
2023-04-09T01:47:58.163Z,102323.97
2023-04-09T01:48:28.541Z,102325.15
2023-04-09T01:48:58.998Z,102324.50
2023-04-09T01:49:29.431Z,102325.99
2023-04-09T01:49:59.844Z,102322.12
2023-04-09T01:50:30.265Z,102327.84
2023-04-09T01:51:00.697Z,102328.38
2023-04-09T01:51:31.109Z,102325.99
2023-04-09T01:52:01.533Z,102327.00
2023-04-09T01:52:31.949Z,102332.06
2023-04-09T01:53:02.418Z,102328.02
2023-04-09T01:53:32.817Z,102328.54
2023-04-09T01:54:03.238Z,102327.33
2023-04-09T01:54:33.660Z,102328.67
2023-04-09T01:55:04.092Z,102328.52
2023-04-09T01:55:34.513Z,102325.48
2023-04-09T01:56:04.934Z,102327.36
2023-04-09T01:56:35.359Z,102327.17
2023-04-09T01:57:05.794Z,102328.38
2023-04-09T01:57:36.216Z,102327.52
2023-04-09T01:58:06.633Z,102326.17
2023-04-09T01:58:37.072Z,102328.89
2023-04-09T01:59:07.483Z,102327.88
2023-04-09T01:59:37.916Z,102330.70
2023-04-09T02:00:08.341Z,102329.71
2023-04-09T02:00:38.758Z,102332.25
2023-04-09T02:01:09.208Z,102332.40
2023-04-09T02:01:39.748Z,102335.94
2023-04-09T02:02:10.288Z,102336.80
2023-04-09T02:02:40.904Z,102335.11
2023-04-09T02:03:11.440Z,102336.47
2023-04-09T02:03:41.984Z,102338.48
2023-04-09T02:04:12.436Z,102339.50
2023-04-09T02:04:42.885Z,102343.52
2023-04-09T02:05:13.287Z,102342.53
2023-04-09T02:05:43.714Z,102340.83
2023-04-09T02:06:14.139Z,102340.99
2023-04-09T02:06:44.577Z,102338.48
2023-04-09T02:07:14.996Z,102341.17
2023-04-09T02:07:45.418Z,102339.32
2023-04-09T02:08:15.845Z,102337.62
2023-04-09T02:08:46.259Z,102337.80
2023-04-09T02:09:16.681Z,102341.34
2023-04-09T02:09:47.106Z,102338.31
2023-04-09T02:10:17.558Z,102336.47
2023-04-09T02:10:47.966Z,102336.81
2023-04-09T02:11:18.387Z,102332.25
2023-04-09T02:11:48.810Z,102336.47
2023-04-09T02:12:19.233Z,102335.62
2023-04-09T02:12:49.673Z,102337.47
2023-04-09T02:13:20.075Z,102337.48
2023-04-09T02:13:50.498Z,102337.98
2023-04-09T02:14:20.921Z,102337.82
2023-04-09T02:14:51.345Z,102335.62
2023-04-09T02:15:21.797Z,102338.00
2023-04-09T02:15:52.319Z,102338.32
2023-04-09T02:16:22.742Z,102338.51
2023-04-09T02:16:53.141Z,102336.64
2023-04-09T02:17:23.619Z,102337.66
2023-04-09T02:17:54.078Z,102339.83
2023-04-09T02:18:24.477Z,102334.79
2023-04-09T02:18:54.931Z,102335.12
2023-04-09T02:19:25.325Z,102335.81
2023-04-09T02:19:55.768Z,102335.98
2023-04-09T02:20:26.193Z,102336.62
2023-04-09T02:20:56.610Z,102334.95
2023-04-09T02:21:27.072Z,102335.61
2023-04-09T02:21:57.472Z,102335.62
2023-04-09T02:22:27.893Z,102332.25
2023-04-09T02:22:58.353Z,102333.78
2023-04-09T02:23:28.772Z,102334.44
2023-04-09T02:23:59.192Z,102335.12
2023-04-09T02:24:29.623Z,102336.46
2023-04-09T02:25:00.055Z,102335.48
2023-04-09T02:25:30.511Z,102336.48
2023-04-09T02:26:00.926Z,102337.66
2023-04-09T02:26:31.352Z,102335.31
2023-04-09T02:27:01.771Z,102336.80
2023-04-09T02:27:32.213Z,102335.81
2023-04-09T02:28:02.626Z,102338.33
2023-04-09T02:28:33.049Z,102334.97
2023-04-09T02:29:03.490Z,102334.78
2023-04-09T02:29:33.899Z,102337.98
2023-04-09T02:30:04.321Z,102337.81
2023-04-09T02:30:34.762Z,102336.67
2023-04-09T02:31:05.206Z,102335.47
2023-04-09T02:31:35.696Z,102336.15
2023-04-09T02:32:06.087Z,102342.38
2023-04-09T02:32:36.533Z,102335.80
2023-04-09T02:33:06.924Z,102336.13
2023-04-09T02:33:37.368Z,102337.67
2023-04-09T02:34:07.781Z,102341.21
2023-04-09T02:34:38.224Z,102338.82
2023-04-09T02:35:08.668Z,102337.99
2023-04-09T02:35:39.104Z,102339.83
2023-04-09T02:36:09.581Z,102344.06
2023-04-09T02:36:39.957Z,102343.38
2023-04-09T02:37:10.382Z,102340.37
2023-04-09T02:37:40.807Z,102343.75
2023-04-09T02:38:11.227Z,102341.22
2023-04-09T02:38:41.655Z,102342.21
2023-04-09T02:39:12.075Z,102344.23
2023-04-09T02:39:42.506Z,102346.42
2023-04-09T02:40:12.915Z,102343.75
2023-04-09T02:40:43.390Z,102339.89
2023-04-09T02:41:13.793Z,102344.94
2023-04-09T02:41:44.214Z,102343.73
2023-04-09T02:42:14.638Z,102343.55
2023-04-09T02:42:45.052Z,102341.05
2023-04-09T02:43:15.472Z,102340.54
2023-04-09T02:43:45.896Z,102340.86
2023-04-09T02:44:16.319Z,102339.69
2023-04-09T02:44:46.738Z,102340.19
2023-04-09T02:45:17.159Z,102337.00
2023-04-09T02:45:47.592Z,102341.86
2023-04-09T02:46:18.057Z,102336.32
2023-04-09T02:46:48.461Z,102339.19
2023-04-09T02:47:18.906Z,102337.98
2023-04-09T02:47:49.312Z,102336.64
2023-04-09T02:48:19.711Z,102340.36
2023-04-09T02:48:50.341Z,102338.49
2023-04-09T02:49:20.902Z,102342.72
2023-04-09T02:49:51.325Z,102342.20
2023-04-09T02:50:21.783Z,102342.88
2023-04-09T02:50:52.208Z,102342.02
2023-04-09T02:51:22.613Z,102339.17
2023-04-09T02:51:53.033Z,102339.17
2023-04-09T02:52:23.472Z,102338.84
2023-04-09T02:52:53.908Z,102339.67
2023-04-09T02:53:24.319Z,102336.16
2023-04-09T02:53:54.742Z,102335.31
2023-04-09T02:54:25.165Z,102335.62
2023-04-09T02:54:55.601Z,102333.95
2023-04-09T02:55:26.011Z,102331.77
2023-04-09T02:55:56.443Z,102333.45
2023-04-09T02:56:26.871Z,102335.46
2023-04-09T02:56:57.285Z,102334.79
2023-04-09T02:57:27.711Z,102336.30
2023-04-09T02:57:58.129Z,102342.02
2023-04-09T02:58:28.549Z,102340.52
2023-04-09T02:58:58.989Z,102337.30
2023-04-09T02:59:29.400Z,102339.70
2023-04-09T02:59:59.815Z,102338.52
2023-04-09T03:00:30.234Z,102338.85
2023-04-09T03:01:00.672Z,102338.18
2023-04-09T03:01:31.161Z,102340.20
2023-04-09T03:02:01.730Z,102340.20
2023-04-09T03:02:32.332Z,102340.54
2023-04-09T03:03:02.858Z,102338.17
2023-04-09T03:03:33.537Z,102335.66
2023-04-09T03:04:04.054Z,102337.69
2023-04-09T03:04:34.590Z,102337.69
2023-04-09T03:05:05.019Z,102339.72
2023-04-09T03:05:35.461Z,102338.20
2023-04-09T03:06:05.890Z,102338.36
2023-04-09T03:06:36.326Z,102339.53
2023-04-09T03:07:06.730Z,102339.22
2023-04-09T03:07:37.145Z,102339.03
2023-04-09T03:08:07.567Z,102336.84
2023-04-09T03:08:37.996Z,102335.83
2023-04-09T03:09:08.432Z,102339.36
2023-04-09T03:09:38.861Z,102334.81
2023-04-09T03:10:09.283Z,102335.97
2023-04-09T03:10:39.711Z,102334.98
2023-04-09T03:11:10.158Z,102336.31
2023-04-09T03:11:40.588Z,102337.98
2023-04-09T03:12:11.010Z,102334.97
2023-04-09T03:12:41.432Z,102337.83
2023-04-09T03:13:11.853Z,102332.77
2023-04-09T03:13:42.279Z,102336.16
2023-04-09T03:14:12.698Z,102335.98
2023-04-09T03:14:43.120Z,102335.98
2023-04-09T03:15:13.549Z,102333.30
2023-04-09T03:15:43.997Z,102334.62
2023-04-09T03:16:14.444Z,102332.79
2023-04-09T03:16:44.862Z,102333.61
2023-04-09T03:17:15.287Z,102337.50
2023-04-09T03:17:45.756Z,102333.64
2023-04-09T03:18:16.172Z,102337.49
2023-04-09T03:18:46.597Z,102335.47
2023-04-09T03:19:17.029Z,102340.02
2023-04-09T03:19:47.452Z,102338.02
2023-04-09T03:20:17.879Z,102338.00
2023-04-09T03:20:48.317Z,102333.12
2023-04-09T03:21:18.737Z,102340.03
2023-04-09T03:21:49.165Z,102338.19
2023-04-09T03:22:19.586Z,102339.71
2023-04-09T03:22:50.009Z,102331.45
2023-04-09T03:23:20.440Z,102333.14
2023-04-09T03:23:50.856Z,102332.48
2023-04-09T03:24:21.280Z,102333.98
2023-04-09T03:24:51.698Z,102332.28
2023-04-09T03:25:22.123Z,102332.09
2023-04-09T03:25:52.566Z,102331.44
2023-04-09T03:26:22.990Z,102335.50
2023-04-09T03:26:53.416Z,102332.63
2023-04-09T03:27:23.831Z,102332.80
2023-04-09T03:27:54.263Z,102331.11
2023-04-09T03:28:24.685Z,102335.16
2023-04-09T03:28:55.300Z,102334.81
2023-04-09T03:29:25.755Z,102334.31
2023-04-09T03:29:56.181Z,102336.84
2023-04-09T03:30:26.607Z,102334.16
2023-04-09T03:30:57.050Z,102329.59
2023-04-09T03:31:27.484Z,102330.10
2023-04-09T03:31:57.886Z,102330.11
2023-04-09T03:32:28.352Z,102330.78
2023-04-09T03:32:58.764Z,102330.43
2023-04-09T03:33:29.186Z,102333.62
2023-04-09T03:33:59.594Z,102330.60
2023-04-09T03:34:30.016Z,102329.59
2023-04-09T03:35:00.452Z,102328.41
2023-04-09T03:35:30.904Z,102330.26
2023-04-09T03:36:01.390Z,102329.58
2023-04-09T03:36:31.840Z,102326.23
2023-04-09T03:37:02.299Z,102328.92
2023-04-09T03:37:32.767Z,102329.59
2023-04-09T03:38:03.275Z,102327.91
2023-04-09T03:38:33.632Z,102331.62
2023-04-09T03:39:04.052Z,102329.27
2023-04-09T03:39:34.472Z,102329.43
2023-04-09T03:40:04.914Z,102326.91
2023-04-09T03:40:35.315Z,102329.74
2023-04-09T03:41:05.746Z,102329.25
2023-04-09T03:41:36.166Z,102328.92
2023-04-09T03:42:06.589Z,102327.91
2023-04-09T03:42:37.007Z,102327.75
2023-04-09T03:43:07.430Z,102328.92
2023-04-09T03:43:37.848Z,102328.59
2023-04-09T03:44:08.277Z,102326.56
2023-04-09T03:44:38.698Z,102326.89
2023-04-09T03:45:09.127Z,102328.91
2023-04-09T03:45:39.541Z,102327.06
2023-04-09T03:46:10.001Z,102327.41
2023-04-09T03:46:40.454Z,102325.05
2023-04-09T03:47:10.855Z,102323.53
2023-04-09T03:47:41.311Z,102323.88
2023-04-09T03:48:11.699Z,102324.21
2023-04-09T03:48:42.217Z,102326.91
2023-04-09T03:49:12.576Z,102324.89
2023-04-09T03:49:43.031Z,102324.20
2023-04-09T03:50:13.418Z,102326.38
2023-04-09T03:50:43.841Z,102325.38
2023-04-09T03:51:14.286Z,102324.70
2023-04-09T03:51:44.718Z,102323.35
2023-04-09T03:52:15.137Z,102324.52
2023-04-09T03:52:45.562Z,102326.20
2023-04-09T03:53:15.992Z,102321.00
2023-04-09T03:53:46.417Z,102326.89
2023-04-09T03:54:16.837Z,102326.54
2023-04-09T03:54:47.270Z,102325.04
2023-04-09T03:55:17.688Z,102325.87
2023-04-09T03:55:48.104Z,102325.53
2023-04-09T03:56:18.525Z,102328.56
2023-04-09T03:56:48.967Z,102325.86
2023-04-09T03:57:19.393Z,102321.48
2023-04-09T03:57:49.814Z,102322.16
2023-04-09T03:58:20.236Z,102324.34
2023-04-09T03:58:51.030Z,102322.86
2023-04-09T03:59:21.549Z,102322.68
2023-04-09T03:59:52.010Z,102325.88
2023-04-09T04:00:22.412Z,102324.54
2023-04-09T04:00:52.840Z,102323.20
2023-04-09T04:01:23.253Z,102324.55
2023-04-09T04:01:53.819Z,102324.54
2023-04-09T04:02:24.379Z,102322.86
2023-04-09T04:02:54.992Z,102321.34
2023-04-09T04:03:25.620Z,102323.88
2023-04-09T04:03:56.176Z,102324.54
2023-04-09T04:04:26.673Z,102323.20
2023-04-09T04:04:57.074Z,102325.53
2023-04-09T04:05:27.518Z,102325.88
2023-04-09T04:05:57.934Z,102325.03
2023-04-09T04:06:28.362Z,102325.71
2023-04-09T04:06:58.778Z,102327.39
2023-04-09T04:07:29.194Z,102325.53
2023-04-09T04:07:59.616Z,102326.06
2023-04-09T04:08:30.051Z,102326.72
2023-04-09T04:09:00.490Z,102331.78
2023-04-09T04:09:30.897Z,102327.55
2023-04-09T04:10:01.447Z,102331.27
2023-04-09T04:10:31.868Z,102328.41
2023-04-09T04:11:02.289Z,102328.56
2023-04-09T04:11:32.713Z,102327.41
2023-04-09T04:12:03.161Z,102326.03
2023-04-09T04:12:33.580Z,102329.06
2023-04-09T04:13:04.010Z,102329.77
2023-04-09T04:13:34.433Z,102329.92
2023-04-09T04:14:04.847Z,102327.23
2023-04-09T04:14:35.288Z,102331.47
2023-04-09T04:15:05.703Z,102332.47
2023-04-09T04:15:36.119Z,102329.27
2023-04-09T04:16:06.563Z,102328.92
2023-04-09T04:16:37.012Z,102331.62
2023-04-09T04:17:07.415Z,102331.95
2023-04-09T04:17:37.866Z,102330.94
2023-04-09T04:18:08.273Z,102328.25
2023-04-09T04:18:38.683Z,102332.62
2023-04-09T04:19:09.108Z,102331.80
2023-04-09T04:19:39.526Z,102335.14
2023-04-09T04:20:09.956Z,102334.48
2023-04-09T04:20:40.385Z,102330.61
2023-04-09T04:21:10.799Z,102335.50
2023-04-09T04:21:41.247Z,102332.95
2023-04-09T04:22:11.660Z,102335.33
2023-04-09T04:22:42.096Z,102333.98
2023-04-09T04:23:12.512Z,102333.31
2023-04-09T04:23:42.928Z,102332.94
2023-04-09T04:24:13.351Z,102334.14
2023-04-09T04:24:43.765Z,102335.30
2023-04-09T04:25:14.196Z,102334.80
2023-04-09T04:25:44.617Z,102334.48
2023-04-09T04:26:15.038Z,102337.00
2023-04-09T04:26:45.457Z,102334.83
2023-04-09T04:27:15.889Z,102334.98
2023-04-09T04:27:46.319Z,102334.66
2023-04-09T04:28:16.745Z,102335.83
2023-04-09T04:28:47.182Z,102336.84
2023-04-09T04:29:17.596Z,102338.69
2023-04-09T04:29:48.021Z,102335.97
2023-04-09T04:30:18.443Z,102338.86
2023-04-09T04:30:48.860Z,102336.16
2023-04-09T04:31:19.317Z,102339.50
2023-04-09T04:31:49.723Z,102338.02
2023-04-09T04:32:20.137Z,102337.16
2023-04-09T04:32:50.598Z,102334.30
2023-04-09T04:33:20.996Z,102337.84
2023-04-09T04:33:51.417Z,102335.64
2023-04-09T04:34:21.834Z,102335.97
2023-04-09T04:34:52.257Z,102337.33
2023-04-09T04:35:22.708Z,102336.14
2023-04-09T04:35:53.116Z,102332.95
2023-04-09T04:36:23.524Z,102335.98
2023-04-09T04:36:54.028Z,102335.67
2023-04-09T04:37:24.451Z,102334.50
2023-04-09T04:37:54.884Z,102336.66
2023-04-09T04:38:25.302Z,102335.17
2023-04-09T04:38:55.723Z,102336.02
2023-04-09T04:39:26.160Z,102336.98
2023-04-09T04:39:56.586Z,102341.20
2023-04-09T04:40:26.995Z,102337.86
2023-04-09T04:40:57.419Z,102342.41
2023-04-09T04:41:27.838Z,102339.70
2023-04-09T04:41:58.270Z,102338.34
2023-04-09T04:42:28.690Z,102340.54
2023-04-09T04:42:59.133Z,102342.72
2023-04-09T04:43:29.547Z,102343.91
2023-04-09T04:43:59.953Z,102342.56
2023-04-09T04:44:30.392Z,102345.25
2023-04-09T04:45:00.800Z,102341.23
2023-04-09T04:45:31.236Z,102346.09
2023-04-09T04:46:01.666Z,102344.23
2023-04-09T04:46:32.058Z,102346.43
2023-04-09T04:47:02.483Z,102344.75
2023-04-09T04:47:32.922Z,102342.22
2023-04-09T04:48:03.380Z,102344.75
2023-04-09T04:48:33.779Z,102344.23
2023-04-09T04:49:04.205Z,102344.76
2023-04-09T04:49:34.642Z,102348.28
2023-04-09T04:50:05.063Z,102344.91
2023-04-09T04:50:35.499Z,102347.61
2023-04-09T04:51:05.927Z,102348.27
2023-04-09T04:51:36.350Z,102346.25
2023-04-09T04:52:06.792Z,102348.28
2023-04-09T04:52:37.203Z,102348.62
2023-04-09T04:53:07.628Z,102348.12
2023-04-09T04:53:38.045Z,102350.65
2023-04-09T04:54:08.476Z,102345.25
2023-04-09T04:54:38.885Z,102347.94
2023-04-09T04:55:09.305Z,102349.44
2023-04-09T04:55:39.731Z,102348.95
2023-04-09T04:56:10.155Z,102349.30
2023-04-09T04:56:40.593Z,102344.90
2023-04-09T04:57:11.004Z,102344.05
2023-04-09T04:57:41.437Z,102344.07
2023-04-09T04:58:11.857Z,102346.77
2023-04-09T04:58:42.288Z,102346.92
2023-04-09T04:59:12.706Z,102342.05
2023-04-09T04:59:43.132Z,102345.42
2023-04-09T05:00:13.558Z,102349.97
2023-04-09T05:00:44.064Z,102348.44
2023-04-09T05:01:14.568Z,102345.92
2023-04-09T05:01:45.048Z,102347.44
2023-04-09T05:02:15.492Z,102351.32
2023-04-09T05:02:46.107Z,102349.97
2023-04-09T05:03:16.650Z,102347.44
2023-04-09T05:03:47.342Z,102346.92
2023-04-09T05:04:17.805Z,102347.44
2023-04-09T05:04:48.235Z,102348.59
2023-04-09T05:05:18.648Z,102350.14
2023-04-09T05:05:49.077Z,102350.11
2023-04-09T05:06:19.490Z,102352.84
2023-04-09T05:06:49.918Z,102353.48
2023-04-09T05:07:20.358Z,102350.79
2023-04-09T05:07:50.793Z,102353.84
2023-04-09T05:08:21.230Z,102351.62
2023-04-09T05:08:52.105Z,102349.61
2023-04-09T05:09:22.653Z,102348.09
2023-04-09T05:09:53.089Z,102347.92
2023-04-09T05:10:23.508Z,102350.30
2023-04-09T05:10:53.930Z,102350.61
2023-04-09T05:11:24.351Z,102348.26
2023-04-09T05:11:54.772Z,102348.10
2023-04-09T05:12:25.197Z,102348.09
2023-04-09T05:12:55.648Z,102349.45
2023-04-09T05:13:26.079Z,102349.79
2023-04-09T05:13:56.499Z,102350.48
2023-04-09T05:14:26.920Z,102350.65
2023-04-09T05:14:57.346Z,102350.30
2023-04-09T05:15:27.759Z,102349.10
2023-04-09T05:15:58.181Z,102351.97
2023-04-09T05:16:28.627Z,102351.46
2023-04-09T05:16:59.164Z,102352.64
2023-04-09T05:17:29.579Z,102349.77
2023-04-09T05:18:00.042Z,102351.83
2023-04-09T05:18:30.422Z,102350.80
2023-04-09T05:19:00.842Z,102349.09
2023-04-09T05:19:31.266Z,102351.95
2023-04-09T05:20:01.686Z,102352.31
2023-04-09T05:20:32.110Z,102349.78
2023-04-09T05:21:02.541Z,102351.45
2023-04-09T05:21:32.955Z,102351.80
2023-04-09T05:22:03.434Z,102352.47
2023-04-09T05:22:33.839Z,102355.00
2023-04-09T05:23:04.258Z,102349.97
2023-04-09T05:23:34.678Z,102348.26
2023-04-09T05:24:05.105Z,102352.64
2023-04-09T05:24:35.519Z,102351.62
2023-04-09T05:25:05.959Z,102353.84
2023-04-09T05:25:36.385Z,102356.69
2023-04-09T05:26:06.812Z,102353.83
2023-04-09T05:26:37.238Z,102357.20
2023-04-09T05:27:07.653Z,102357.88
2023-04-09T05:27:38.074Z,102359.38
2023-04-09T05:28:08.510Z,102359.38
2023-04-09T05:28:38.954Z,102360.08
2023-04-09T05:29:09.379Z,102357.88
2023-04-09T05:29:39.815Z,102354.67
2023-04-09T05:30:10.223Z,102362.08
2023-04-09T05:30:40.681Z,102354.86
2023-04-09T05:31:11.177Z,102356.54
2023-04-09T05:31:41.656Z,102358.06
2023-04-09T05:32:12.079Z,102360.91
2023-04-09T05:32:42.569Z,102355.02
2023-04-09T05:33:12.948Z,102356.88
2023-04-09T05:33:43.367Z,102353.66
2023-04-09T05:34:13.786Z,102355.69
2023-04-09T05:34:44.227Z,102360.23
2023-04-09T05:35:14.641Z,102359.23
2023-04-09T05:35:45.082Z,102358.40
2023-04-09T05:36:15.485Z,102355.86
2023-04-09T05:36:45.909Z,102358.38
2023-04-09T05:37:16.332Z,102357.20
2023-04-09T05:37:46.774Z,102357.68
2023-04-09T05:38:17.203Z,102357.70
2023-04-09T05:38:47.631Z,102358.22
2023-04-09T05:39:18.070Z,102356.69
2023-04-09T05:39:48.477Z,102362.42
2023-04-09T05:40:18.896Z,102359.73
2023-04-09T05:40:49.318Z,102358.53
2023-04-09T05:41:19.743Z,102358.88
2023-04-09T05:41:50.163Z,102359.91
2023-04-09T05:42:20.584Z,102360.39
2023-04-09T05:42:51.025Z,102364.12
2023-04-09T05:43:21.461Z,102364.27
2023-04-09T05:43:52.134Z,102364.27
2023-04-09T05:44:22.588Z,102367.45
2023-04-09T05:44:53.025Z,102368.32
2023-04-09T05:45:23.446Z,102369.14
2023-04-09T05:45:53.882Z,102371.69
2023-04-09T05:46:24.304Z,102371.53
2023-04-09T05:46:54.715Z,102369.84
2023-04-09T05:47:25.174Z,102369.17